Time;durP1;ratioP1;P1;durP2;ratioP2;P2;SDS_P1;SDS_P2;PMS_P1;PMS_P2;Temp;Humidity;BMP_temperature;BMP_pressure;BME280_temperature;BME280_humidity;BME280_pressure;Samples;Min_cycle;Max_cycle;Signal;HPM_P1;HPM_P2
2023/02/05 00:01:34;;;;;;;1.27;0.50;;;;;;;-6.50;65.76;103696.50;5061795;28;20098;-70
2023/02/05 00:04:01;;;;;;;1.00;0.47;;;;;;;-6.58;66.18;103680.50;5059292;28;20051;-70
2023/02/05 00:06:28;;;;;;;2.10;0.55;;;;;;;-6.56;66.11;103679.00;5056818;28;20041;-70
2023/02/05 00:08:56;;;;;;;1.48;0.60;;;;;;;-6.53;65.46;103685.16;5057479;28;20052;-69
2023/02/05 00:11:23;;;;;;;1.10;0.73;;;;;;;-6.52;65.55;103694.56;5052357;28;20886;-70
2023/02/05 00:13:50;;;;;;;2.58;0.43;;;;;;;-6.51;65.40;103686.22;5055413;28;20048;-70
2023/02/05 00:16:20;;;;;;;4.72;0.60;;;;;;;-6.51;65.80;103687.09;5060195;28;20045;-69
2023/02/05 00:18:48;;;;;;;1.40;0.52;;;;;;;-6.52;65.21;103679.31;5056652;28;20048;-69
2023/02/05 00:21:15;;;;;;;2.58;0.40;;;;;;;-6.52;65.45;103681.84;5060975;28;20049;-69
2023/02/05 00:23:42;;;;;;;1.08;0.32;;;;;;;-6.54;65.76;103675.75;5054000;28;20412;-69
2023/02/05 00:26:12;;;;;;;2.47;0.43;;;;;;;-6.52;66.11;103675.13;5062429;28;20049;-70
2023/02/05 00:28:39;;;;;;;3.38;0.30;;;;;;;-6.57;65.40;103659.44;5061388;28;20501;-70
2023/02/05 00:31:08;;;;;;;1.23;0.30;;;;;;;-6.53;65.84;103659.72;5062324;28;20040;-69
2023/02/05 00:33:36;;;;;;;1.27;0.43;;;;;;;-6.52;65.84;103661.50;5061124;28;20044;-69
2023/02/05 00:36:03;;;;;;;3.10;0.50;;;;;;;-6.54;65.98;103652.88;5060843;28;20432;-70
2023/02/05 00:38:30;;;;;;;1.40;0.40;;;;;;;-6.54;66.16;103653.75;5058354;28;20055;-69
2023/02/05 00:40:57;;;;;;;2.55;0.57;;;;;;;-6.59;65.58;103644.78;5061282;28;20061;-69
2023/02/05 00:43:24;;;;;;;3.17;0.40;;;;;;;-6.53;65.94;103647.03;5055640;28;20052;-69
2023/02/05 00:45:51;;;;;;;2.03;0.45;;;;;;;-6.51;66.37;103645.53;5059985;28;20493;-70
2023/02/05 00:48:18;;;;;;;2.15;0.40;;;;;;;-6.52;65.94;103639.53;5058126;28;20048;-70
2023/02/05 00:50:47;;;;;;;1.88;0.45;;;;;;;-6.59;66.26;103630.41;5062379;28;20131;-69
2023/02/05 00:53:14;;;;;;;1.17;0.50;;;;;;;-6.50;65.85;103632.06;5061830;28;20052;-69
2023/02/05 00:55:41;;;;;;;2.90;0.30;;;;;;;-6.50;65.65;103629.50;5055741;28;20049;-70
2023/02/05 00:58:08;;;;;;;1.73;0.43;;;;;;;-6.53;66.00;103619.94;5063603;28;20519;-69
2023/02/05 01:00:35;;;;;;;2.88;0.30;;;;;;;-6.51;65.54;103622.66;5063369;28;20051;-69
2023/02/05 01:03:02;;;;;;;3.45;0.35;;;;;;;-6.50;66.07;103614.25;5064173;28;20049;-69
2023/02/05 01:05:29;;;;;;;2.90;0.50;;;;;;;-6.50;65.69;103609.16;5058784;28;20063;-69
2023/02/05 01:07:57;;;;;;;1.52;0.35;;;;;;;-6.49;66.37;103610.94;5061702;28;20513;-69
2023/02/05 01:10:24;;;;;;;0.60;0.32;;;;;;;-6.48;66.28;103605.13;5042490;28;20049;-70
2023/02/05 01:12:51;;;;;;;0.80;0.30;;;;;;;-6.49;65.54;103596.59;5057793;28;20087;-70
2023/02/05 01:15:19;;;;;;;1.38;0.30;;;;;;;-6.48;65.58;103597.50;5057084;28;20048;-70
2023/02/05 01:17:46;;;;;;;1.20;0.22;;;;;;;-6.49;65.51;103590.59;5059424;28;20045;-69
2023/02/05 01:20:16;;;;;;;1.70;0.35;;;;;;;-6.47;65.64;103594.19;5060301;28;20052;-70
2023/02/05 01:22:43;;;;;;;1.05;0.32;;;;;;;-6.47;66.14;103589.13;5059179;28;20464;-70
2023/02/05 01:25:11;;;;;;;2.63;0.40;;;;;;;-6.46;66.08;103588.34;5054837;28;20048;-69
2023/02/05 01:27:38;;;;;;;1.58;0.30;;;;;;;-6.47;65.66;103586.56;5057165;28;20047;-70
2023/02/05 01:30:07;;;;;;;3.47;0.38;;;;;;;-6.47;66.10;103584.03;5055368;28;20136;-69
2023/02/05 01:32:34;;;;;;;4.18;0.47;;;;;;;-6.46;65.55;103585.81;5054497;28;20048;-69
2023/02/05 01:35:01;;;;;;;3.38;0.35;;;;;;;-6.44;66.05;103574.16;5064279;28;20045;-70
2023/02/05 01:37:28;;;;;;;0.57;0.30;;;;;;;-6.45;66.54;103577.47;5061411;28;20047;-69
2023/02/05 01:39:55;;;;;;;2.63;0.30;;;;;;;-6.42;65.71;103580.28;5057634;28;20056;-70
2023/02/05 01:42:25;;;;;;;2.83;0.55;;;;;;;-6.41;66.06;103577.88;5055179;28;20048;-69
2023/02/05 01:45:31;;;;;;;2.88;0.38;;;;;;;-6.39;66.06;103573.84;5056110;28;20415;-69
2023/02/05 01:47:59;;;;;;;1.25;0.30;;;;;;;-6.38;66.21;103570.53;5057855;28;20059;-69
2023/02/05 01:50:29;;;;;;;0.50;0.30;;;;;;;-6.40;65.79;103548.28;5058832;28;20051;-70
2023/02/05 01:52:59;;;;;;;2.40;0.30;;;;;;;-6.35;65.99;103564.84;5058223;28;20488;-70
2023/02/05 01:55:27;;;;;;;1.05;0.30;;;;;;;-6.34;66.04;103562.47;5053300;28;20054;-69
2023/02/05 01:57:57;;;;;;;1.92;0.30;;;;;;;-6.32;65.91;103554.97;5055406;28;20048;-69
2023/02/05 02:00:24;;;;;;;0.73;0.25;;;;;;;-6.30;65.85;103552.56;5058803;28;20063;-69
2023/02/05 02:02:51;;;;;;;1.95;0.30;;;;;;;-6.28;65.99;103546.88;5056557;28;20052;-69
2023/02/05 02:05:18;;;;;;;0.75;0.35;;;;;;;-6.27;66.17;103538.50;5061017;28;20052;-70
2023/02/05 02:07:45;;;;;;;1.42;0.40;;;;;;;-6.26;66.67;103540.31;5060104;28;20562;-69
2023/02/05 02:10:15;;;;;;;2.78;0.40;;;;;;;-6.23;66.78;103544.75;5059864;28;20515;-68
2023/02/05 02:12:44;;;;;;;1.30;0.30;;;;;;;-6.22;66.76;103542.38;5059982;28;20085;-70
2023/02/05 02:15:17;;;;;;;3.95;1.20;;;;;;;-6.20;66.60;103540.88;5055310;28;20512;-69
2023/02/05 02:17:47;;;;;;;1.00;0.22;;;;;;;-6.17;66.88;103540.25;5060719;28;20056;-69
2023/02/05 02:20:18;;;;;;;3.08;0.30;;;;;;;-6.17;66.39;103525.88;5057698;28;20081;-71
2023/02/05 02:23:10;;;;;;;0.77;0.30;;;;;;;-6.13;66.38;103527.94;5059947;28;20058;-69
2023/02/05 02:26:08;;;;;;;1.23;1.13;;;;;;;-6.11;66.53;103523.03;5058131;28;20041;-70
2023/02/05 02:28:43;;;;;;;0.50;0.30;;;;;;;-6.12;66.74;103519.59;5042143;28;20055;-69
2023/02/05 02:31:11;;;;;;;;;;;;;;;-6.05;66.19;103520.16;5057487;28;20047;-69
2023/02/05 02:33:44;;;;;;;1.58;0.30;;;;;;;-6.07;66.52;103508.94;5058723;28;19928;-69
2023/02/05 02:36:17;;;;;;;1.60;0.30;;;;;;;-6.03;66.46;103506.81;5062480;28;20055;-69
2023/02/05 02:38:51;;;;;;;0.77;0.30;;;;;;;-5.99;66.40;103503.78;5059212;28;20045;-70
2023/02/05 02:41:23;;;;;;;6.05;0.30;;;;;;;-5.99;66.26;103485.97;5057765;28;20094;-69
2023/02/05 02:43:55;;;;;;;1.55;0.30;;;;;;;-5.98;66.60;103479.22;5061818;28;20041;-69
2023/02/05 02:46:28;;;;;;;0.40;0.20;;;;;;;-5.93;66.44;103481.41;5059291;28;20041;-70
2023/02/05 02:48:58;;;;;;;2.53;0.20;;;;;;;-5.92;66.48;103470.50;5054859;28;20056;-69
2023/02/05 02:51:28;;;;;;;2.72;0.20;;;;;;;-5.88;66.67;103469.13;5058056;28;20048;-69
2023/02/05 02:53:58;;;;;;;2.53;0.28;;;;;;;-5.85;66.95;103459.22;5061515;28;20098;-69
2023/02/05 02:56:27;;;;;;;0.38;0.20;;;;;;;-5.83;67.05;103456.78;5056396;28;20041;-69
2023/02/05 02:59:01;;;;;;;2.38;0.20;;;;;;;-5.81;67.01;103448.53;5057836;28;20736;-69
2023/02/05 03:01:33;;;;;;;2.35;0.32;;;;;;;-5.79;66.50;103444.50;5060264;28;20049;-69
2023/02/05 03:04:07;;;;;;;0.73;0.30;;;;;;;-5.77;66.26;103442.09;5054155;28;20040;-69
2023/02/05 03:06:35;;;;;;;0.73;0.13;;;;;;;-5.75;66.35;103433.84;5058725;28;20058;-70
2023/02/05 03:09:08;;;;;;;1.38;0.30;;;;;;;-5.73;66.74;103434.84;5058807;28;20045;-69
2023/02/05 03:11:34;;;;;;;0.55;0.10;;;;;;;-5.73;66.22;103437.41;5058798;28;20051;-69
2023/02/05 03:14:03;;;;;;;0.35;0.17;;;;;;;-5.68;66.98;103436.19;5060193;28;20040;-73
2023/02/05 03:16:30;;;;;;;0.93;0.20;;;;;;;-5.66;66.65;103438.88;5058628;28;20074;-73
2023/02/05 03:18:58;;;;;;;3.33;0.30;;;;;;;-5.64;67.14;103427.16;5058853;28;20051;-73
2023/02/05 03:21:35;;;;;;;1.15;0.25;;;;;;;-5.84;66.11;103399.91;5061207;28;20044;-73
2023/02/05 03:24:02;;;;;;;2.08;0.20;;;;;;;-5.60;66.79;103436.88;5056541;28;20041;-72
2023/02/05 03:26:30;;;;;;;0.90;0.28;;;;;;;-5.57;66.87;103446.44;5056601;28;20064;-71
2023/02/05 03:28:59;;;;;;;4.55;0.20;;;;;;;-5.55;66.67;103442.34;5058555;28;20037;-71
2023/02/05 03:31:35;;;;;;;1.70;0.20;;;;;;;-5.54;66.61;103436.53;5063676;28;20055;-71
2023/02/05 03:34:16;;;;;;;2.15;0.20;;;;;;;-5.52;66.22;103440.09;5061255;28;20044;-72
2023/02/05 03:36:53;;;;;;;0.20;0.10;;;;;;;-5.50;66.63;103436.03;5063588;28;21424;-71
2023/02/05 03:39:31;;;;;;;0.40;0.17;;;;;;;-5.54;66.10;103426.34;5064010;28;20424;-71
2023/02/05 03:42:10;;;;;;;0.50;0.10;;;;;;;-5.55;66.52;103420.38;5060933;28;20048;-72
2023/02/05 03:45:04;;;;;;;0.22;0.10;;;;;;;-5.46;66.38;103431.38;5061538;28;20415;-71
2023/02/05 03:47:44;;;;;;;1.95;0.25;;;;;;;-5.46;66.79;103427.94;5053690;28;20063;-72
2023/02/05 03:50:20;;;;;;;0.43;0.40;;;;;;;-5.39;66.49;103442.97;5053670;28;20048;-71
2023/02/05 03:52:51;;;;;;;2.05;0.20;;;;;;;-5.43;66.63;103425.66;5057866;28;20045;-72
2023/02/05 03:55:22;;;;;;;2.13;0.20;;;;;;;-5.34;66.78;103438.31;5058146;28;20428;-71
2023/02/05 03:57:53;;;;;;;2.80;0.20;;;;;;;-5.37;66.86;103427.84;5055934;28;21552;-71
2023/02/05 04:00:21;;;;;;;1.92;0.20;;;;;;;-5.29;66.43;103434.53;5058220;28;20492;-71
2023/02/05 04:02:49;;;;;;;3.60;0.25;;;;;;;-5.28;66.97;103436.31;5057510;28;20136;-72
2023/02/05 04:05:16;;;;;;;3.50;0.20;;;;;;;-5.29;66.49;103420.13;5058266;28;20056;-70
2023/02/05 04:07:43;;;;;;;1.60;0.10;;;;;;;-5.30;66.66;103403.03;5058183;28;20055;-72
2023/02/05 04:10:10;;;;;;;0.90;0.17;;;;;;;-5.25;66.50;103398.34;5054823;28;20037;-71
2023/02/05 04:12:37;;;;;;;0.88;0.20;;;;;;;-5.20;66.42;103402.19;5057614;28;20552;-71
2023/02/05 04:15:06;;;;;;;0.30;0.10;;;;;;;-5.20;66.46;103394.56;5057015;28;20052;-71
2023/02/05 04:17:33;;;;;;;4.88;0.30;;;;;;;-5.13;66.29;103401.06;5057225;28;20044;-72
2023/02/05 04:20:01;;;;;;;1.02;0.20;;;;;;;-5.10;66.60;103401.34;5057441;28;20143;-71
2023/02/05 04:22:28;;;;;;;0.40;0.20;;;;;;;-5.10;66.18;103403.88;5055310;28;20049;-71
2023/02/05 04:24:55;;;;;;;2.05;0.15;;;;;;;-5.07;66.53;103396.50;5057007;28;20049;-71
2023/02/05 04:27:22;;;;;;;1.52;0.30;;;;;;;-5.14;66.56;103381.47;5056487;28;20045;-71
2023/02/05 04:29:48;;;;;;;2.67;0.20;;;;;;;-5.03;66.14;103398.56;5054290;28;20052;-73
2023/02/05 04:32:15;;;;;;;4.20;0.30;;;;;;;-4.98;66.71;103402.38;5054819;28;20060;-71
2023/02/05 04:34:42;;;;;;;1.67;0.13;;;;;;;-4.95;65.99;103397.59;5058231;28;20052;-71
2023/02/05 04:37:10;;;;;;;0.47;0.10;;;;;;;-4.93;66.38;103392.59;5056876;28;20048;-71
2023/02/05 04:39:37;;;;;;;2.55;0.20;;;;;;;-4.91;66.72;103394.53;5056135;28;20472;-72
2023/02/05 04:42:05;;;;;;;0.80;0.20;;;;;;;-4.90;65.97;103398.84;5056177;28;20139;-72
2023/02/05 04:44:31;;;;;;;0.95;0.30;;;;;;;-4.95;66.32;103381.38;5056716;28;20055;-72
2023/02/05 04:46:58;;;;;;;0.40;0.20;;;;;;;-4.84;66.55;103403.59;5056963;28;20063;-71
2023/02/05 04:49:25;;;;;;;2.72;0.20;;;;;;;-4.82;66.13;103394.44;5056086;28;20135;-72
2023/02/05 04:51:52;;;;;;;0.85;0.10;;;;;;;-4.83;66.29;103374.81;5057736;28;20048;-71
2023/02/05 04:54:20;;;;;;;0.70;0.10;;;;;;;-4.83;65.99;103373.16;5054484;28;20518;-71
2023/02/05 04:56:47;;;;;;;1.85;0.10;;;;;;;-4.82;66.37;103368.94;5056481;28;20048;-72
2023/02/05 04:59:14;;;;;;;1.67;0.68;;;;;;;-4.77;65.74;103368.56;5053994;28;20408;-71
2023/02/05 05:01:41;;;;;;;1.17;0.13;;;;;;;-4.68;66.16;103378.66;5056793;28;20165;-72
2023/02/05 05:04:08;;;;;;;0.20;0.10;;;;;;;-4.67;65.97;103369.34;5054698;28;20409;-71
2023/02/05 05:06:35;;;;;;;0.65;0.20;;;;;;;-4.67;65.77;103369.34;5056875;28;20415;-72
2023/02/05 05:09:02;;;;;;;0.77;0.20;;;;;;;-4.65;65.75;103371.25;5055696;28;20055;-72
2023/02/05 05:11:30;;;;;;;0.50;0.20;;;;;;;-4.60;65.79;103376.75;5056590;28;20051;-72
2023/02/05 05:13:57;;;;;;;0.73;0.20;;;;;;;-4.60;65.67;103372.56;5053180;28;20040;-71
2023/02/05 05:16:24;;;;;;;0.25;0.10;;;;;;;-4.65;65.32;103353.41;5054801;28;20052;-71
2023/02/05 05:18:51;;;;;;;1.00;0.50;;;;;;;-4.53;65.41;103368.84;5057236;28;20059;-72
2023/02/05 05:21:18;;;;;;;0.50;0.17;;;;;;;-4.52;64.79;103363.88;5056483;28;20574;-72
2023/02/05 05:23:45;;;;;;;0.93;0.10;;;;;;;-4.52;65.38;103360.44;5058086;28;20052;-72
2023/02/05 05:26:12;;;;;;;0.88;0.10;;;;;;;-4.51;64.93;103354.56;5052870;28;20741;-72
2023/02/05 05:28:41;;;;;;;1.80;0.17;;;;;;;-4.66;65.27;103331.22;5057716;28;20053;-71
2023/02/05 05:31:09;;;;;;;1.70;0.13;;;;;;;-4.53;65.08;103335.69;5057151;28;20180;-72
2023/02/05 05:33:36;;;;;;;0.32;0.10;;;;;;;-4.51;64.40;103341.81;5056668;28;20593;-72
2023/02/05 05:36:04;;;;;;;3.90;0.10;;;;;;;-4.48;65.13;103344.63;5057895;28;20055;-71
2023/02/05 05:38:31;;;;;;;2.20;0.10;;;;;;;-4.38;64.81;103349.75;5051531;28;20048;-71
2023/02/05 05:43:46;;;;;;;0.13;0.10;;;;;;;-4.39;64.82;103340.28;5056581;28;20121;-71
2023/02/05 05:46:14;;;;;;;1.05;0.30;;;;;;;-4.36;64.41;103337.97;5054663;28;20048;-73
2023/02/05 05:48:41;;;;;;;0.20;0.10;;;;;;;-4.27;64.75;103347.19;5057283;28;20049;-71
2023/02/05 05:51:08;;;;;;;0.20;0.10;;;;;;;-4.30;64.44;103340.16;5054903;28;20048;-72
2023/02/05 05:53:35;;;;;;;0.20;0.10;;;;;;;-4.22;64.68;103345.91;5053520;28;20401;-72
2023/02/05 05:56:02;;;;;;;0.43;0.10;;;;;;;-4.20;64.07;103347.81;5055314;28;20061;-72
2023/02/05 05:58:29;;;;;;;0.40;0.10;;;;;;;-4.16;64.67;103354.94;5053303;28;20048;-72
2023/02/05 06:00:57;;;;;;;1.65;0.10;;;;;;;-4.13;64.20;103344.09;5054554;28;20058;-72
2023/02/05 06:03:24;;;;;;;1.00;0.10;;;;;;;-4.15;64.37;103336.34;5054561;28;20045;-72
2023/02/05 06:05:51;;;;;;;0.20;0.10;;;;;;;-4.15;64.20;103326.13;5053551;28;20061;-73
2023/02/05 06:08:18;;;;;;;0.30;0.10;;;;;;;-4.10;64.14;103327.41;5053049;28;20064;-71
2023/02/05 06:10:45;;;;;;;0.13;0.10;;;;;;;-4.13;64.13;103321.13;5054656;28;20408;-72
2023/02/05 06:13:12;;;;;;;0.35;0.10;;;;;;;-4.02;63.70;103329.69;5053479;28;20044;-72
2023/02/05 06:15:39;;;;;;;0.10;0.00;;;;;;;-3.99;63.86;103330.81;5054765;28;20063;-71
2023/02/05 06:18:07;;;;;;;0.60;0.10;;;;;;;-3.96;63.29;103331.06;5050163;28;20052;-72
2023/02/05 06:20:34;;;;;;;0.43;0.10;;;;;;;-3.94;63.70;103328.66;5055378;28;20258;-71
2023/02/05 06:23:01;;;;;;;0.10;0.10;;;;;;;-3.91;63.31;103324.66;5053947;28;20052;-72
2023/02/05 06:25:28;;;;;;;0.20;0.05;;;;;;;-3.91;63.28;103314.47;5049419;28;20055;-72
2023/02/05 06:27:55;;;;;;;0.10;0.05;;;;;;;-3.85;63.31;103316.63;5054658;28;20052;-72
2023/02/05 06:30:22;;;;;;;0.30;0.10;;;;;;;-3.84;62.96;103308.22;5053233;28;20056;-72
2023/02/05 06:32:49;;;;;;;0.10;0.10;;;;;;;-3.82;62.86;103313.41;5053908;28;20044;-71
2023/02/05 06:35:17;;;;;;;0.15;0.05;;;;;;;-3.78;62.85;103311.25;5014937;28;20048;-76
2023/02/05 06:37:44;;;;;;;0.00;0.00;;;;;;;-3.83;62.56;103302.31;5053860;28;20045;-72
2023/02/05 06:40:11;;;;;;;2.22;0.10;;;;;;;-3.77;62.96;103299.38;5053363;28;20531;-72
2023/02/05 06:42:38;;;;;;;0.10;0.10;;;;;;;-3.74;62.19;103297.06;5054573;28;20511;-72
2023/02/05 06:45:06;;;;;;;0.13;0.00;;;;;;;-3.71;62.27;103303.28;5053627;28;20408;-71
2023/02/05 06:47:33;;;;;;;0.10;0.03;;;;;;;-3.67;62.47;103299.31;5052923;28;20048;-72
2023/02/05 06:50:00;;;;;;;0.20;0.10;;;;;;;-3.62;61.71;103303.13;5049837;28;20068;-71
2023/02/05 06:52:28;;;;;;;0.60;0.40;;;;;;;-3.59;62.06;103295.72;5050587;28;20048;-72
2023/02/05 06:54:55;;;;;;;0.40;0.10;;;;;;;-3.58;61.81;103304.28;5050808;28;20048;-73
2023/02/05 06:57:22;;;;;;;0.55;0.00;;;;;;;-3.56;61.55;103301.06;5053828;28;20072;-72
2023/02/05 06:59:48;;;;;;;1.80;0.00;;;;;;;-3.61;61.41;103289.63;5051926;28;20059;-72
2023/02/05 07:02:15;;;;;;;0.10;0.00;;;;;;;-3.49;61.86;103316.13;5051860;28;20060;-72
2023/02/05 07:04:42;;;;;;;0.50;0.00;;;;;;;-3.46;61.50;103310.38;5050941;28;20056;-71
2023/02/05 07:07:09;;;;;;;3.20;0.05;;;;;;;-3.43;61.76;103308.94;5055339;28;20049;-72
2023/02/05 07:09:37;;;;;;;0.10;0.00;;;;;;;-3.40;61.55;103310.84;5051989;28;20412;-71
2023/02/05 07:12:05;;;;;;;0.03;0.00;;;;;;;-3.38;61.59;103319.53;5051515;28;20049;-71
2023/02/05 07:14:32;;;;;;;0.08;0.00;;;;;;;-3.34;61.36;103318.09;5054398;28;20397;-72
2023/02/05 07:16:59;;;;;;;1.15;0.10;;;;;;;-3.37;61.39;103297.44;5055965;28;20045;-72
2023/02/05 07:19:26;;;;;;;1.05;0.10;;;;;;;-3.34;61.52;103303.66;5053265;28;20052;-73
2023/02/05 07:21:52;;;;;;;0.30;0.03;;;;;;;-3.25;61.54;103314.59;5054817;28;20051;-72
2023/02/05 07:24:19;;;;;;;0.05;0.00;;;;;;;-3.22;61.45;103311.41;5052288;28;20574;-71
2023/02/05 07:26:47;;;;;;;0.10;0.00;;;;;;;-3.29;61.21;103301.47;5054723;28;20415;-73
2023/02/05 07:29:14;;;;;;;0.70;0.10;;;;;;;-3.16;61.22;103324.66;5053881;28;20037;-72
2023/02/05 07:31:41;;;;;;;0.55;0.10;;;;;;;-3.13;61.62;103330.03;5054616;28;20040;-72
2023/02/05 07:34:08;;;;;;;1.38;0.10;;;;;;;-3.16;61.38;103322.09;5054311;28;20409;-72
2023/02/05 07:36:35;;;;;;;0.38;0.08;;;;;;;-3.09;61.06;103323.50;5053786;28;20488;-72
2023/02/05 07:39:02;;;;;;;0.30;0.10;;;;;;;-3.05;61.07;103328.94;5055025;28;20075;-72
2023/02/05 07:41:29;;;;;;;0.60;0.15;;;;;;;-3.02;61.03;103325.72;5053517;28;20055;-72
2023/02/05 07:43:57;;;;;;;0.10;0.10;;;;;;;-3.09;60.91;103306.47;5053665;28;20051;-72
2023/02/05 07:46:24;;;;;;;0.55;0.10;;;;;;;-2.98;61.40;103317.53;5047855;28;20045;-72
2023/02/05 07:48:51;;;;;;;0.15;0.05;;;;;;;-2.96;61.05;103309.22;5055952;28;20048;-72
2023/02/05 07:51:22;;;;;;;0.17;0.05;;;;;;;-3.01;61.20;103292.63;5053821;28;21874;-73
2023/02/05 07:53:50;;;;;;;0.20;0.00;;;;;;;-2.91;60.90;103308.66;5052734;28;20048;-73
2023/02/05 07:56:20;;;;;;;3.80;0.10;;;;;;;-2.87;61.16;103315.81;5053898;28;20052;-69
2023/02/05 07:58:47;;;;;;;0.25;0.10;;;;;;;-2.83;61.20;103315.28;5054574;28;20096;-72
2023/02/05 08:01:16;;;;;;;1.17;0.10;;;;;;;-2.81;60.96;103313.72;5051030;28;20068;-72
2023/02/05 08:03:43;;;;;;;0.05;0.00;;;;;;;-2.82;60.63;103307.69;5052096;28;20103;-74
2023/02/05 08:06:14;;;;;;;2.45;0.20;;;;;;;-2.91;60.72;103289.09;5052195;28;20071;-72
2023/02/05 08:08:40;;;;;;;0.80;0.10;;;;;;;-2.75;60.69;103306.53;5054530;28;21020;-72
2023/02/05 08:11:07;;;;;;;0.22;0.10;;;;;;;-2.76;60.58;103295.41;5053563;28;20060;-72
2023/02/05 08:13:34;;;;;;;0.10;0.10;;;;;;;-2.71;60.49;103304.28;5043774;28;20064;-72
2023/02/05 08:16:05;;;;;;;0.30;0.08;;;;;;;-2.82;60.38;103278.69;5051238;28;20536;-72
2023/02/05 08:18:34;;;;;;;1.45;0.10;;;;;;;-2.69;60.61;103303.53;5047567;28;20052;-72
2023/02/05 08:21:01;;;;;;;0.57;0.10;;;;;;;-2.62;60.44;103305.78;5052239;28;20056;-73
2023/02/05 08:23:28;;;;;;;0.25;0.10;;;;;;;-2.63;60.12;103298.88;5050812;28;20059;-72
2023/02/05 08:25:55;;;;;;;0.10;0.00;;;;;;;-2.62;60.32;103304.13;5051471;28;20048;-72
2023/02/05 08:28:22;;;;;;;0.10;0.03;;;;;;;-2.55;60.21;103316.59;5052486;28;20048;-73
2023/02/05 08:30:49;;;;;;;1.95;0.10;;;;;;;-2.54;60.37;103307.25;5048745;28;20054;-72
2023/02/05 08:33:16;;;;;;;0.13;0.00;;;;;;;-2.50;60.04;103315.28;5053350;28;20049;-72
2023/02/05 08:35:45;;;;;;;0.85;0.10;;;;;;;-2.46;60.10;103312.94;5048918;28;20052;-73
2023/02/05 08:38:11;;;;;;;1.95;0.10;;;;;;;-2.46;60.19;103305.28;5055859;28;20045;-73
2023/02/05 08:40:38;;;;;;;0.15;0.00;;;;;;;-2.47;60.17;103303.50;5054421;28;20049;-72
2023/02/05 08:43:07;;;;;;;0.93;0.10;;;;;;;-2.37;59.84;103313.63;5054243;28;20040;-72
2023/02/05 08:45:34;;;;;;;0.00;0.00;;;;;;;-2.42;59.63;103299.59;5052303;28;20131;-72
2023/02/05 08:48:01;;;;;;;1.55;0.10;;;;;;;-2.31;59.90;103306.41;5055282;28;20052;-72
2023/02/05 08:50:28;;;;;;;0.43;0.00;;;;;;;-2.30;60.11;103308.22;5050088;28;20049;-71
2023/02/05 08:52:56;;;;;;;0.93;0.03;;;;;;;-2.28;60.09;103297.31;5053354;28;20044;-72
2023/02/05 08:55:23;;;;;;;5.72;0.98;;;;;;;-2.24;60.18;103293.31;5054117;28;20055;-72
2023/02/05 08:57:50;;;;;;;2.83;0.10;;;;;;;-2.20;59.85;103299.53;5052824;28;20131;-72
2023/02/05 09:00:18;;;;;;;0.13;0.08;;;;;;;-2.18;59.72;103304.00;5054260;28;20454;-72
2023/02/05 09:02:45;;;;;;;0.10;0.10;;;;;;;-2.14;59.45;103287.19;5053641;28;21695;-72
2023/02/05 09:05:11;;;;;;;0.00;0.00;;;;;;;-2.12;59.60;103289.06;5053619;28;20749;-72
2023/02/05 09:07:39;;;;;;;2.50;0.22;;;;;;;-2.07;59.61;103292.00;5045816;28;20056;-75
2023/02/05 09:10:09;;;;;;;2.03;0.13;;;;;;;-2.05;59.35;103291.31;5051985;28;20524;-72
2023/02/05 09:12:36;;;;;;;0.40;0.10;;;;;;;-2.01;59.54;103291.53;5051171;28;20047;-72
2023/02/05 09:15:03;;;;;;;0.10;0.00;;;;;;;-1.98;59.77;103284.09;5046452;28;20072;-72
2023/02/05 09:17:30;;;;;;;0.68;0.10;;;;;;;-1.95;59.65;103284.31;5053352;28;20126;-72
2023/02/05 09:19:57;;;;;;;0.88;0.10;;;;;;;-1.93;59.20;103286.19;5050283;28;20052;-72
2023/02/05 09:22:23;;;;;;;0.60;0.10;;;;;;;-1.90;59.10;103286.41;5051537;28;20048;-72
2023/02/05 09:24:50;;;;;;;0.63;0.10;;;;;;;-1.88;58.92;103278.84;5050392;28;20083;-71
2023/02/05 09:27:19;;;;;;;0.47;0.20;;;;;;;-1.84;59.46;103281.75;5046017;28;20051;-72
2023/02/05 09:29:45;;;;;;;0.52;0.10;;;;;;;-1.82;59.26;103267.38;5053631;28;20048;-71
2023/02/05 09:32:12;;;;;;;3.38;0.00;;;;;;;-1.87;58.99;103243.09;5051673;28;20040;-72
2023/02/05 09:34:39;;;;;;;1.10;0.10;;;;;;;-1.75;59.05;103250.75;5053648;28;20060;-71
2023/02/05 09:37:06;;;;;;;0.73;0.10;;;;;;;-1.72;59.02;103258.66;5049641;28;20488;-71
2023/02/05 09:39:33;;;;;;;0.43;0.10;;;;;;;-1.69;59.40;103265.69;5052324;28;20045;-72
2023/02/05 09:42:05;;;;;;;0.50;0.10;;;;;;;-1.68;59.19;103253.00;5050508;28;20055;-73
2023/02/05 09:44:51;;;;;;;0.40;0.10;;;;;;;-1.64;59.25;103259.22;5055179;28;20067;-72
2023/02/05 09:47:25;;;;;;;1.38;0.10;;;;;;;-1.60;59.23;103259.53;5047396;28;20407;-72
2023/02/05 09:50:01;;;;;;;1.58;0.10;;;;;;;-1.59;59.10;103250.19;5054049;28;20053;-72
2023/02/05 09:52:33;;;;;;;0.22;0.22;;;;;;;-1.55;59.63;103241.91;5050576;28;20051;-72
2023/02/05 09:55:03;;;;;;;0.20;0.10;;;;;;;-1.52;59.49;103237.00;5051765;28;20053;-72
2023/02/05 09:57:34;;;;;;;0.10;0.00;;;;;;;-1.50;59.43;103227.75;5049360;28;20044;-72
2023/02/05 10:00:04;;;;;;;2.22;0.10;;;;;;;-1.54;59.53;103205.25;5050233;28;21963;-72
2023/02/05 10:02:37;;;;;;;0.20;0.10;;;;;;;-1.45;59.79;103211.03;5045280;28;20053;-72
2023/02/05 10:05:14;;;;;;;0.52;0.20;;;;;;;-1.41;59.63;103210.44;5050332;28;20056;-72
2023/02/05 10:07:53;;;;;;;7.53;0.20;;;;;;;-1.38;60.16;103209.78;5051027;28;20055;-72
2023/02/05 10:10:25;;;;;;;0.50;0.10;;;;;;;-1.37;60.32;103208.97;5050548;28;20052;-72
2023/02/05 10:13:18;;;;;;;2.55;0.10;;;;;;;-1.40;59.79;103190.81;5050562;28;20052;-71
2023/02/05 10:16:01;;;;;;;0.10;0.10;;;;;;;-1.33;60.20;103193.03;5034643;28;20048;-72
2023/02/05 10:18:42;;;;;;;0.10;0.10;;;;;;;-1.26;60.56;103207.16;5048767;28;20041;-73
2023/02/05 10:21:24;;;;;;;0.22;0.10;;;;;;;-1.24;60.53;103201.38;5051761;28;20041;-73
2023/02/05 10:24:14;;;;;;;1.17;0.10;;;;;;;-1.22;60.57;103199.81;5054112;28;20083;-70
2023/02/05 10:26:46;;;;;;;0.38;0.10;;;;;;;-1.19;60.65;103202.56;5051388;28;20048;-70
2023/02/05 10:29:27;;;;;;;2.67;0.10;;;;;;;-1.15;60.27;103201.09;5050111;28;20041;-70
2023/02/05 10:32:09;;;;;;;0.10;0.00;;;;;;;-1.14;60.58;103196.09;5054102;28;20508;-70
2023/02/05 10:34:49;;;;;;;1.20;0.08;;;;;;;-1.12;61.04;103191.03;5050835;28;20044;-70
2023/02/05 10:37:19;;;;;;;0.13;0.10;;;;;;;-1.09;60.56;103185.25;5050477;28;20508;-71
2023/02/05 10:39:48;;;;;;;0.30;0.10;;;;;;;-1.09;61.08;103174.97;5047309;28;21305;-70
2023/02/05 10:42:26;;;;;;;0.30;0.10;;;;;;;-1.14;61.12;103172.09;5051587;28;20399;-72
2023/02/05 10:45:01;;;;;;;0.52;0.10;;;;;;;-1.04;61.08;103171.94;5050525;28;20049;-70
2023/02/05 10:47:44;;;;;;;1.30;0.30;;;;;;;-1.03;61.50;103181.41;5049896;28;20435;-70
2023/02/05 10:50:19;;;;;;;1.42;0.20;;;;;;;-1.01;61.57;103177.28;5051162;28;20052;-70
2023/02/05 10:52:46;;;;;;;0.20;0.10;;;;;;;-1.00;61.30;103173.91;5052179;28;20058;-74
2023/02/05 10:55:14;;;;;;;0.80;0.10;;;;;;;-0.98;61.34;103174.03;5054399;28;20041;-74
2023/02/05 10:57:41;;;;;;;1.35;0.20;;;;;;;-1.05;62.14;103153.88;5053463;28;20482;-71
2023/02/05 11:00:16;;;;;;;1.15;0.20;;;;;;;-0.95;61.92;103169.09;5051456;28;20402;-70
2023/02/05 11:02:54;;;;;;;3.53;0.10;;;;;;;-0.94;62.41;103166.66;5047630;28;20889;-71
2023/02/05 11:05:25;;;;;;;6.43;0.80;;;;;;;-0.91;61.81;103163.41;5049145;28;20648;-71
2023/02/05 11:07:53;;;;;;;0.98;0.20;;;;;;;-0.96;62.22;103146.81;5051987;28;20051;-70
2023/02/05 11:10:21;;;;;;;0.63;0.15;;;;;;;-0.88;61.78;103157.56;5040875;28;20043;-70
2023/02/05 11:12:51;;;;;;;0.50;0.20;;;;;;;-0.95;62.45;103146.88;5052349;28;20652;-70
2023/02/05 11:15:29;;;;;;;1.23;0.20;;;;;;;-0.85;62.20;103165.44;5045651;28;20037;-70
2023/02/05 11:18:00;;;;;;;1.95;0.20;;;;;;;-0.82;62.23;103166.56;5049388;28;20052;-70
2023/02/05 11:20:32;;;;;;;0.52;0.10;;;;;;;-0.88;62.42;103152.44;5050778;28;20130;-70
2023/02/05 11:23:16;;;;;;;0.85;0.20;;;;;;;-0.82;62.37;103155.44;5047788;28;20060;-70
2023/02/05 11:25:51;;;;;;;0.73;0.10;;;;;;;-0.84;62.62;103151.84;5048593;28;20055;-69
2023/02/05 11:28:26;;;;;;;1.20;0.10;;;;;;;-0.78;63.12;103163.41;5050175;28;20052;-70
2023/02/05 11:30:53;;;;;;;1.42;0.10;;;;;;;-0.77;63.55;103160.06;5051375;28;20626;-70
2023/02/05 11:33:28;;;;;;;0.22;0.10;;;;;;;-0.76;63.45;103159.28;5054431;28;20052;-71
2023/02/05 11:35:58;;;;;;;0.17;0.05;;;;;;;-0.75;63.17;103155.03;5051868;28;20136;-71
2023/02/05 11:38:30;;;;;;;0.17;0.10;;;;;;;-0.73;63.86;103151.78;5053278;28;20036;-70